Current Weather

Shoreham

Shoreham, United Kingdom (EGKA)

Report from: Saturday, June 22, 2024 9:20 AM BST
Current time: Saturday, June 22, 2024 9:39 AM BST

Nearby weather – Weather history – Daily summaries
Weather forecast

Present weatherVCSH
Temperature17.0°C (62.6°F)
Dew point15.0°C (59.0°F)
Winds 7 kts (3.6 m/s, 8.1 mph) Vrb
Winds variableWinds variable from West-Southwest (240°) to West-Northwest (300°)
Visibility6.2 mi. (10 km)
Clouds Scattered clouds 1,100 ft. (335 m)
Altimeter29.88 in.Hg (1012 mB)
Relative humidity88 %
Density altitude513 ft. (156 m)
Flight conditions Visual Meteorological Conditions
Raw dataEGKA 220820Z 27007KT 240V300 9999 VCSH SCT011 17/15 Q1012
An error has occurred. This application may no longer respond until reloaded. Reload 🗙